Portada
METAR-TAF:

METAR-TAF

Aeroports :

Ubon Ratchathani, Tailàndia

latitud: 15-15N, longitud: 104-52E, altitud: 123 m

Observació

L'informe es va fer fa 1 hora i 9 minuts, a les 17:00 UTC
Vent 4 kt del Nord/Nord-Est
Temperatura 26°C
Humitat 89%
Pressió 1011 hPa
Visibilitat 10 km o més
Núvols disperses a una alçada de 2500 ft
Cel ennuvolat a una alçada de 10000 ft

METAR: VTUU 211700Z 02004KT 9999 SCT025 BKN100 26/24 Q1011 NOSIG

Hora: 01:09 (18:09 UTC)

Pronòstic

L'informe es va fer fa 1 hora i 9 minuts, a les 17:00 UTC
Pronòstic vàlid del 21 a les 18 UTC al 22 a les 18 UTC
Vent 5 kt del Nord-Est
Visibilitat 10 km o més
Núvols disperses a una alçada de 2500 ft
Temporalment
l' 22 a les 08 UTC al 22 a les 11 UTC
Vent 15 kt amb direcció variable
Visibilitat: 5000 m
Escasses núvols a una alçada de 1800 ft, Cumulonimbus.
Cel ennuvolat a una alçada de 2000 ft
tempesta, pluja

TAF: VTUU 211700Z 2118/2218 04005KT 9999 SCT025 TEMPO 2208/2211 VRB15KT 5000 TSRA FEW018CB BKN020

Observacions i pronòstics meteorològics de més de 4000 aeroports (METAR i TAF).

Les estacions disponibles són els punts grocs i vermells al mapa.

Posi el ratolí al punt desitjat per veure el nom de l'estació.

Feu clic per veure les observacions i els pronòstics meteorològics.

Per canviar el mapa: feu clic els botons verds amb una creu de color negre per apropar; al botó verd amb un guió per allunyar la imatge; o en les fletxes verdes per a mapes adjacents.


METAR-TAF: